sensor_id;sensor_type;location;lat;lon;timestamp;temperature;humidity
15113;DHT22;7657;50.140;7.076;2023-04-16T00:01:46;7.80;99.90
15113;DHT22;7657;50.140;7.076;2023-04-16T00:04:13;7.80;99.90
15113;DHT22;7657;50.140;7.076;2023-04-16T00:06:39;7.70;99.90
15113;DHT22;7657;50.140;7.076;2023-04-16T00:09:06;7.70;99.90
15113;DHT22;7657;50.140;7.076;2023-04-16T00:11:35;7.60;99.90
15113;DHT22;7657;50.140;7.076;2023-04-16T00:14:02;7.70;99.90
15113;DHT22;7657;50.140;7.076;2023-04-16T00:16:29;7.60;99.90
15113;DHT22;7657;50.140;7.076;2023-04-16T00:18:56;7.70;99.90
15113;DHT22;7657;50.140;7.076;2023-04-16T00:21:23;7.70;99.90
15113;DHT22;7657;50.140;7.076;2023-04-16T00:23:50;7.70;99.90
15113;DHT22;7657;50.140;7.076;2023-04-16T00:26:17;7.50;99.90
15113;DHT22;7657;50.140;7.076;2023-04-16T00:28:46;7.40;99.90
15113;DHT22;7657;50.140;7.076;2023-04-16T00:31:12;7.30;99.90
15113;DHT22;7657;50.140;7.076;2023-04-16T00:33:39;7.30;99.90
15113;DHT22;7657;50.140;7.076;2023-04-16T00:36:06;7.50;99.90
15113;DHT22;7657;50.140;7.076;2023-04-16T00:38:34;7.60;99.90
15113;DHT22;7657;50.140;7.076;2023-04-16T00:41:01;7.60;99.90
15113;DHT22;7657;50.140;7.076;2023-04-16T00:43:28;7.60;99.90
15113;DHT22;7657;50.140;7.076;2023-04-16T00:45:57;7.60;99.90
15113;DHT22;7657;50.140;7.076;2023-04-16T00:48:25;7.60;99.90
15113;DHT22;7657;50.140;7.076;2023-04-16T00:50:53;7.70;99.90
15113;DHT22;7657;50.140;7.076;2023-04-16T00:53:21;7.60;99.90
15113;DHT22;7657;50.140;7.076;2023-04-16T00:55:48;7.50;99.90
15113;DHT22;7657;50.140;7.076;2023-04-16T00:58:15;7.50;99.90
15113;DHT22;7657;50.140;7.076;2023-04-16T01:00:42;7.50;99.90
15113;DHT22;7657;50.140;7.076;2023-04-16T01:03:10;7.50;99.90
15113;DHT22;7657;50.140;7.076;2023-04-16T01:05:38;7.40;99.90
15113;DHT22;7657;50.140;7.076;2023-04-16T01:08:05;7.30;99.90
15113;DHT22;7657;50.140;7.076;2023-04-16T01:10:32;7.20;99.90
15113;DHT22;7657;50.140;7.076;2023-04-16T01:12:58;7.10;99.90
15113;DHT22;7657;50.140;7.076;2023-04-16T01:15:25;7.10;99.90
15113;DHT22;7657;50.140;7.076;2023-04-16T01:17:52;7.20;99.90
15113;DHT22;7657;50.140;7.076;2023-04-16T01:20:21;7.20;99.90
15113;DHT22;7657;50.140;7.076;2023-04-16T01:22:49;7.20;99.90
15113;DHT22;7657;50.140;7.076;2023-04-16T01:25:16;7.30;99.90
15113;DHT22;7657;50.140;7.076;2023-04-16T01:27:43;7.20;99.90
15113;DHT22;7657;50.140;7.076;2023-04-16T01:30:10;7.20;99.90
15113;DHT22;7657;50.140;7.076;2023-04-16T01:32:37;7.00;99.90
15113;DHT22;7657;50.140;7.076;2023-04-16T01:35:04;7.00;99.90
15113;DHT22;7657;50.140;7.076;2023-04-16T01:37:31;7.00;99.90
15113;DHT22;7657;50.140;7.076;2023-04-16T01:39:59;7.00;99.90
15113;DHT22;7657;50.140;7.076;2023-04-16T01:42:26;6.90;99.90
15113;DHT22;7657;50.140;7.076;2023-04-16T01:44:53;6.90;99.90
15113;DHT22;7657;50.140;7.076;2023-04-16T01:47:20;7.00;99.90
15113;DHT22;7657;50.140;7.076;2023-04-16T01:49:47;7.00;99.90
15113;DHT22;7657;50.140;7.076;2023-04-16T01:52:14;7.10;99.90
15113;DHT22;7657;50.140;7.076;2023-04-16T01:54:41;7.10;99.90
15113;DHT22;7657;50.140;7.076;2023-04-16T01:57:09;7.20;99.90
15113;DHT22;7657;50.140;7.076;2023-04-16T01:59:36;7.30;99.90
15113;DHT22;7657;50.140;7.076;2023-04-16T02:02:09;7.20;99.90
15113;DHT22;7657;50.140;7.076;2023-04-16T02:04:36;7.30;99.90
15113;DHT22;7657;50.140;7.076;2023-04-16T02:07:03;7.40;99.90
15113;DHT22;7657;50.140;7.076;2023-04-16T02:09:31;7.30;99.90
15113;DHT22;7657;50.140;7.076;2023-04-16T02:11:59;7.30;99.90
15113;DHT22;7657;50.140;7.076;2023-04-16T02:14:28;7.30;99.90
15113;DHT22;7657;50.140;7.076;2023-04-16T02:16:55;7.30;99.90
15113;DHT22;7657;50.140;7.076;2023-04-16T02:19:22;7.30;99.90
15113;DHT22;7657;50.140;7.076;2023-04-16T02:21:50;7.30;99.90
15113;DHT22;7657;50.140;7.076;2023-04-16T02:24:18;7.40;99.90
15113;DHT22;7657;50.140;7.076;2023-04-16T02:26:45;7.30;99.90
15113;DHT22;7657;50.140;7.076;2023-04-16T02:29:12;7.20;99.90
15113;DHT22;7657;50.140;7.076;2023-04-16T02:31:42;7.20;99.90
15113;DHT22;7657;50.140;7.076;2023-04-16T02:34:09;7.30;99.90
15113;DHT22;7657;50.140;7.076;2023-04-16T02:36:36;7.40;99.90
15113;DHT22;7657;50.140;7.076;2023-04-16T02:39:03;7.20;99.90
15113;DHT22;7657;50.140;7.076;2023-04-16T02:41:30;7.20;99.90
15113;DHT22;7657;50.140;7.076;2023-04-16T02:43:56;7.30;99.90
15113;DHT22;7657;50.140;7.076;2023-04-16T02:46:23;7.20;99.90
15113;DHT22;7657;50.140;7.076;2023-04-16T02:48:52;7.30;99.90
15113;DHT22;7657;50.140;7.076;2023-04-16T02:51:18;7.30;99.90
15113;DHT22;7657;50.140;7.076;2023-04-16T02:53:45;7.40;99.90
15113;DHT22;7657;50.140;7.076;2023-04-16T02:56:12;7.40;99.90
15113;DHT22;7657;50.140;7.076;2023-04-16T02:58:39;7.40;99.90
15113;DHT22;7657;50.140;7.076;2023-04-16T03:01:06;7.30;99.90
15113;DHT22;7657;50.140;7.076;2023-04-16T03:03:33;7.40;99.90
15113;DHT22;7657;50.140;7.076;2023-04-16T03:06:02;7.60;99.90
15113;DHT22;7657;50.140;7.076;2023-04-16T03:08:29;7.60;99.90
15113;DHT22;7657;50.140;7.076;2023-04-16T03:10:55;7.70;99.90
15113;DHT22;7657;50.140;7.076;2023-04-16T03:13:22;7.70;99.90
15113;DHT22;7657;50.140;7.076;2023-04-16T03:15:49;7.70;99.90
15113;DHT22;7657;50.140;7.076;2023-04-16T03:18:16;7.50;99.90
15113;DHT22;7657;50.140;7.076;2023-04-16T03:20:43;7.50;99.90
15113;DHT22;7657;50.140;7.076;2023-04-16T03:23:11;7.60;99.90
15113;DHT22;7657;50.140;7.076;2023-04-16T03:25:38;7.50;99.90
15113;DHT22;7657;50.140;7.076;2023-04-16T03:28:06;7.30;99.90
15113;DHT22;7657;50.140;7.076;2023-04-16T03:30:32;7.20;99.90
15113;DHT22;7657;50.140;7.076;2023-04-16T03:32:59;7.30;99.90
15113;DHT22;7657;50.140;7.076;2023-04-16T03:35:26;7.40;99.90
15113;DHT22;7657;50.140;7.076;2023-04-16T03:37:53;7.30;99.90
15113;DHT22;7657;50.140;7.076;2023-04-16T03:40:21;7.40;99.90
15113;DHT22;7657;50.140;7.076;2023-04-16T03:42:48;7.40;99.90
15113;DHT22;7657;50.140;7.076;2023-04-16T03:45:15;7.30;99.90
15113;DHT22;7657;50.140;7.076;2023-04-16T03:47:42;7.30;99.90
15113;DHT22;7657;50.140;7.076;2023-04-16T03:50:13;7.30;99.90
15113;DHT22;7657;50.140;7.076;2023-04-16T03:52:39;7.50;99.90
15113;DHT22;7657;50.140;7.076;2023-04-16T03:55:07;7.40;99.90
15113;DHT22;7657;50.140;7.076;2023-04-16T03:57:35;7.30;99.90
15113;DHT22;7657;50.140;7.076;2023-04-16T04:00:02;7.20;99.90
15113;DHT22;7657;50.140;7.076;2023-04-16T04:02:29;7.20;99.90
15113;DHT22;7657;50.140;7.076;2023-04-16T04:04:56;7.20;99.90
15113;DHT22;7657;50.140;7.076;2023-04-16T04:07:23;7.10;99.90
15113;DHT22;7657;50.140;7.076;2023-04-16T04:09:50;7.00;99.90
15113;DHT22;7657;50.140;7.076;2023-04-16T04:12:17;7.00;99.90
15113;DHT22;7657;50.140;7.076;2023-04-16T04:14:45;7.00;99.90
15113;DHT22;7657;50.140;7.076;2023-04-16T04:17:12;7.00;99.90
15113;DHT22;7657;50.140;7.076;2023-04-16T04:19:39;7.00;99.90
15113;DHT22;7657;50.140;7.076;2023-04-16T04:22:06;7.00;99.90
15113;DHT22;7657;50.140;7.076;2023-04-16T04:24:32;7.00;99.90
15113;DHT22;7657;50.140;7.076;2023-04-16T04:27:00;7.00;99.90
15113;DHT22;7657;50.140;7.076;2023-04-16T04:29:28;7.00;99.90
15113;DHT22;7657;50.140;7.076;2023-04-16T04:31:56;7.00;99.90
15113;DHT22;7657;50.140;7.076;2023-04-16T04:34:23;7.10;99.90
15113;DHT22;7657;50.140;7.076;2023-04-16T04:36:50;7.00;99.90
15113;DHT22;7657;50.140;7.076;2023-04-16T04:39:17;7.10;99.90
15113;DHT22;7657;50.140;7.076;2023-04-16T04:41:46;7.10;99.90
15113;DHT22;7657;50.140;7.076;2023-04-16T04:44:13;7.10;99.90
15113;DHT22;7657;50.140;7.076;2023-04-16T04:46:40;7.10;99.90
15113;DHT22;7657;50.140;7.076;2023-04-16T04:49:08;7.10;99.90
15113;DHT22;7657;50.140;7.076;2023-04-16T04:51:35;7.10;99.90
15113;DHT22;7657;50.140;7.076;2023-04-16T04:54:02;7.10;99.90
15113;DHT22;7657;50.140;7.076;2023-04-16T04:56:28;7.10;99.90
15113;DHT22;7657;50.140;7.076;2023-04-16T04:58:55;7.20;99.90
15113;DHT22;7657;50.140;7.076;2023-04-16T05:01:22;7.20;99.90
15113;DHT22;7657;50.140;7.076;2023-04-16T05:03:49;7.20;99.90
15113;DHT22;7657;50.140;7.076;2023-04-16T05:06:17;7.20;99.90
15113;DHT22;7657;50.140;7.076;2023-04-16T05:08:44;7.20;99.90
15113;DHT22;7657;50.140;7.076;2023-04-16T05:11:11;7.30;99.90
15113;DHT22;7657;50.140;7.076;2023-04-16T05:13:38;7.30;99.90
15113;DHT22;7657;50.140;7.076;2023-04-16T05:16:06;7.40;99.90
15113;DHT22;7657;50.140;7.076;2023-04-16T05:18:33;7.30;99.90
15113;DHT22;7657;50.140;7.076;2023-04-16T05:21:00;7.20;99.90
15113;DHT22;7657;50.140;7.076;2023-04-16T05:23:28;7.20;99.90
15113;DHT22;7657;50.140;7.076;2023-04-16T05:25:55;7.20;99.90
15113;DHT22;7657;50.140;7.076;2023-04-16T05:28:22;7.20;99.90
15113;DHT22;7657;50.140;7.076;2023-04-16T05:30:49;7.20;99.90
15113;DHT22;7657;50.140;7.076;2023-04-16T05:33:16;7.20;99.90
15113;DHT22;7657;50.140;7.076;2023-04-16T05:35:43;7.30;99.90
15113;DHT22;7657;50.140;7.076;2023-04-16T05:38:09;7.30;99.90
15113;DHT22;7657;50.140;7.076;2023-04-16T05:40:38;7.20;99.90
15113;DHT22;7657;50.140;7.076;2023-04-16T05:43:05;7.10;99.90
15113;DHT22;7657;50.140;7.076;2023-04-16T05:45:32;7.10;99.90
15113;DHT22;7657;50.140;7.076;2023-04-16T05:48:04;7.20;99.90
15113;DHT22;7657;50.140;7.076;2023-04-16T05:50:31;7.40;99.90
15113;DHT22;7657;50.140;7.076;2023-04-16T05:52:58;7.30;99.90
15113;DHT22;7657;50.140;7.076;2023-04-16T05:55:25;7.40;99.90
15113;DHT22;7657;50.140;7.076;2023-04-16T05:57:53;7.50;99.90
15113;DHT22;7657;50.140;7.076;2023-04-16T06:00:20;7.50;99.90
15113;DHT22;7657;50.140;7.076;2023-04-16T06:02:47;7.30;99.90
15113;DHT22;7657;50.140;7.076;2023-04-16T06:05:13;7.40;99.90
15113;DHT22;7657;50.140;7.076;2023-04-16T06:07:40;7.50;99.90
15113;DHT22;7657;50.140;7.076;2023-04-16T06:10:08;7.50;99.90
15113;DHT22;7657;50.140;7.076;2023-04-16T06:12:35;7.50;99.90
15113;DHT22;7657;50.140;7.076;2023-04-16T06:15:04;7.50;99.90
15113;DHT22;7657;50.140;7.076;2023-04-16T06:17:31;7.60;99.90
15113;DHT22;7657;50.140;7.076;2023-04-16T06:19:58;7.70;99.90
15113;DHT22;7657;50.140;7.076;2023-04-16T06:22:25;7.90;99.90
15113;DHT22;7657;50.140;7.076;2023-04-16T06:24:52;7.90;99.90
15113;DHT22;7657;50.140;7.076;2023-04-16T06:27:19;8.00;99.90
15113;DHT22;7657;50.140;7.076;2023-04-16T06:29:46;8.00;99.90
15113;DHT22;7657;50.140;7.076;2023-04-16T06:32:15;8.10;99.90
15113;DHT22;7657;50.140;7.076;2023-04-16T06:34:42;8.20;99.90
15113;DHT22;7657;50.140;7.076;2023-04-16T06:37:09;8.10;99.90
15113;DHT22;7657;50.140;7.076;2023-04-16T06:39:36;8.10;99.90
15113;DHT22;7657;50.140;7.076;2023-04-16T06:42:03;8.20;99.90
15113;DHT22;7657;50.140;7.076;2023-04-16T06:44:30;8.20;99.90
15113;DHT22;7657;50.140;7.076;2023-04-16T06:46:57;8.20;99.90
15113;DHT22;7657;50.140;7.076;2023-04-16T06:49:25;8.10;99.90
15113;DHT22;7657;50.140;7.076;2023-04-16T06:51:52;8.10;99.90
15113;DHT22;7657;50.140;7.076;2023-04-16T06:54:19;8.20;99.90
15113;DHT22;7657;50.140;7.076;2023-04-16T06:56:46;8.20;99.90
15113;DHT22;7657;50.140;7.076;2023-04-16T06:59:13;8.30;99.90
15113;DHT22;7657;50.140;7.076;2023-04-16T07:01:40;8.30;99.90
15113;DHT22;7657;50.140;7.076;2023-04-16T07:04:07;8.20;99.90
15113;DHT22;7657;50.140;7.076;2023-04-16T07:06:35;8.20;99.90
15113;DHT22;7657;50.140;7.076;2023-04-16T07:09:02;8.20;99.90
15113;DHT22;7657;50.140;7.076;2023-04-16T07:11:29;8.30;99.90
15113;DHT22;7657;50.140;7.076;2023-04-16T07:13:56;8.20;99.90
15113;DHT22;7657;50.140;7.076;2023-04-16T07:16:23;8.20;99.90
15113;DHT22;7657;50.140;7.076;2023-04-16T07:18:50;8.30;99.90
15113;DHT22;7657;50.140;7.076;2023-04-16T07:21:17;8.30;99.90
15113;DHT22;7657;50.140;7.076;2023-04-16T07:23:45;8.20;99.90
15113;DHT22;7657;50.140;7.076;2023-04-16T07:26:12;8.10;99.90
15113;DHT22;7657;50.140;7.076;2023-04-16T07:28:39;8.20;99.90
15113;DHT22;7657;50.140;7.076;2023-04-16T07:31:06;8.20;99.90
15113;DHT22;7657;50.140;7.076;2023-04-16T07:33:33;8.20;99.90
15113;DHT22;7657;50.140;7.076;2023-04-16T07:36:01;8.20;99.90
15113;DHT22;7657;50.140;7.076;2023-04-16T07:38:27;8.30;99.90
15113;DHT22;7657;50.140;7.076;2023-04-16T07:40:56;8.40;99.90
15113;DHT22;7657;50.140;7.076;2023-04-16T07:43:23;8.40;99.90
15113;DHT22;7657;50.140;7.076;2023-04-16T07:45:50;8.40;99.90
15113;DHT22;7657;50.140;7.076;2023-04-16T07:48:16;8.40;99.90
15113;DHT22;7657;50.140;7.076;2023-04-16T07:50:43;8.50;99.90
15113;DHT22;7657;50.140;7.076;2023-04-16T07:53:10;8.50;99.90
15113;DHT22;7657;50.140;7.076;2023-04-16T07:55:37;8.30;99.90
15113;DHT22;7657;50.140;7.076;2023-04-16T07:58:05;8.50;99.90
15113;DHT22;7657;50.140;7.076;2023-04-16T08:00:34;8.60;99.90
15113;DHT22;7657;50.140;7.076;2023-04-16T08:03:01;8.60;99.90
15113;DHT22;7657;50.140;7.076;2023-04-16T08:05:27;8.50;99.90
15113;DHT22;7657;50.140;7.076;2023-04-16T08:07:54;8.60;99.90
15113;DHT22;7657;50.140;7.076;2023-04-16T08:10:21;8.60;99.90
15113;DHT22;7657;50.140;7.076;2023-04-16T08:12:48;8.70;99.90
15113;DHT22;7657;50.140;7.076;2023-04-16T08:15:16;8.90;99.90
15113;DHT22;7657;50.140;7.076;2023-04-16T08:17:43;8.90;99.90
15113;DHT22;7657;50.140;7.076;2023-04-16T08:20:10;9.00;99.90
15113;DHT22;7657;50.140;7.076;2023-04-16T08:22:37;8.90;99.90
15113;DHT22;7657;50.140;7.076;2023-04-16T08:25:05;9.00;99.90
15113;DHT22;7657;50.140;7.076;2023-04-16T08:27:32;8.80;99.90
15113;DHT22;7657;50.140;7.076;2023-04-16T08:29:58;8.90;99.90
15113;DHT22;7657;50.140;7.076;2023-04-16T08:32:27;8.90;99.90
15113;DHT22;7657;50.140;7.076;2023-04-16T08:34:53;9.00;99.90
15113;DHT22;7657;50.140;7.076;2023-04-16T08:37:20;9.10;99.90
15113;DHT22;7657;50.140;7.076;2023-04-16T08:39:47;9.00;99.90
15113;DHT22;7657;50.140;7.076;2023-04-16T08:42:22;9.00;99.90
15113;DHT22;7657;50.140;7.076;2023-04-16T08:44:52;9.00;99.90
15113;DHT22;7657;50.140;7.076;2023-04-16T08:47:24;9.00;99.90
15113;DHT22;7657;50.140;7.076;2023-04-16T08:49:56;9.00;99.90
15113;DHT22;7657;50.140;7.076;2023-04-16T08:52:25;9.20;99.90
15113;DHT22;7657;50.140;7.076;2023-04-16T08:54:57;9.20;99.90
15113;DHT22;7657;50.140;7.076;2023-04-16T08:57:41;9.20;99.90
15113;DHT22;7657;50.140;7.076;2023-04-16T09:00:11;9.20;99.90
15113;DHT22;7657;50.140;7.076;2023-04-16T09:02:39;9.30;99.90
15113;DHT22;7657;50.140;7.076;2023-04-16T09:05:09;9.30;99.90
15113;DHT22;7657;50.140;7.076;2023-04-16T09:07:36;9.30;99.90
15113;DHT22;7657;50.140;7.076;2023-04-16T09:10:06;9.20;99.90
15113;DHT22;7657;50.140;7.076;2023-04-16T09:12:34;9.30;99.90
15113;DHT22;7657;50.140;7.076;2023-04-16T09:15:01;9.30;99.90
15113;DHT22;7657;50.140;7.076;2023-04-16T09:17:29;9.50;99.90
15113;DHT22;7657;50.140;7.076;2023-04-16T09:19:56;9.60;99.90
15113;DHT22;7657;50.140;7.076;2023-04-16T09:22:25;9.60;99.90
15113;DHT22;7657;50.140;7.076;2023-04-16T09:24:51;9.60;99.90
15113;DHT22;7657;50.140;7.076;2023-04-16T09:27:19;9.50;99.90
15113;DHT22;7657;50.140;7.076;2023-04-16T09:29:47;9.50;99.90
15113;DHT22;7657;50.140;7.076;2023-04-16T09:32:13;9.60;99.90
15113;DHT22;7657;50.140;7.076;2023-04-16T09:34:54;9.80;99.90
15113;DHT22;7657;50.140;7.076;2023-04-16T09:37:22;9.80;99.90
15113;DHT22;7657;50.140;7.076;2023-04-16T09:39:54;9.70;99.90
15113;DHT22;7657;50.140;7.076;2023-04-16T09:42:23;9.80;99.90
15113;DHT22;7657;50.140;7.076;2023-04-16T09:44:52;9.90;99.90
15113;DHT22;7657;50.140;7.076;2023-04-16T09:47:19;9.90;99.90
15113;DHT22;7657;50.140;7.076;2023-04-16T09:49:46;9.90;99.90
15113;DHT22;7657;50.140;7.076;2023-04-16T09:52:14;10.00;99.90
15113;DHT22;7657;50.140;7.076;2023-04-16T09:54:48;10.10;99.90
15113;DHT22;7657;50.140;7.076;2023-04-16T09:57:19;10.20;99.90
15113;DHT22;7657;50.140;7.076;2023-04-16T09:59:51;10.30;99.90
15113;DHT22;7657;50.140;7.076;2023-04-16T10:02:19;10.40;99.90
15113;DHT22;7657;50.140;7.076;2023-04-16T10:04:49;10.40;99.90
15113;DHT22;7657;50.140;7.076;2023-04-16T10:07:17;10.60;99.90
15113;DHT22;7657;50.140;7.076;2023-04-16T10:09:45;10.70;99.90
15113;DHT22;7657;50.140;7.076;2023-04-16T10:12:13;10.80;99.90
15113;DHT22;7657;50.140;7.076;2023-04-16T10:14:42;10.80;99.90
15113;DHT22;7657;50.140;7.076;2023-04-16T10:17:09;10.80;99.90
15113;DHT22;7657;50.140;7.076;2023-04-16T10:19:36;10.90;99.90
15113;DHT22;7657;50.140;7.076;2023-04-16T10:22:03;10.90;99.90
15113;DHT22;7657;50.140;7.076;2023-04-16T10:24:32;10.80;99.90
15113;DHT22;7657;50.140;7.076;2023-04-16T10:26:59;10.80;99.90
15113;DHT22;7657;50.140;7.076;2023-04-16T10:29:28;10.90;99.90
15113;DHT22;7657;50.140;7.076;2023-04-16T10:31:57;10.80;99.90
15113;DHT22;7657;50.140;7.076;2023-04-16T10:34:25;10.80;99.90
15113;DHT22;7657;50.140;7.076;2023-04-16T10:36:53;10.60;99.90
15113;DHT22;7657;50.140;7.076;2023-04-16T10:39:21;10.50;99.90
15113;DHT22;7657;50.140;7.076;2023-04-16T10:41:48;10.50;99.90
15113;DHT22;7657;50.140;7.076;2023-04-16T10:44:17;10.60;99.90
15113;DHT22;7657;50.140;7.076;2023-04-16T10:46:46;10.60;99.90
15113;DHT22;7657;50.140;7.076;2023-04-16T10:49:17;10.60;99.90
15113;DHT22;7657;50.140;7.076;2023-04-16T10:51:55;10.50;99.90
15113;DHT22;7657;50.140;7.076;2023-04-16T10:54:23;10.50;99.90
15113;DHT22;7657;50.140;7.076;2023-04-16T10:56:52;10.50;99.90
15113;DHT22;7657;50.140;7.076;2023-04-16T10:59:21;10.50;99.90
15113;DHT22;7657;50.140;7.076;2023-04-16T11:01:51;10.60;99.90
15113;DHT22;7657;50.140;7.076;2023-04-16T11:04:43;10.50;99.90
15113;DHT22;7657;50.140;7.076;2023-04-16T11:07:18;10.60;99.90
15113;DHT22;7657;50.140;7.076;2023-04-16T11:09:50;10.60;99.90
15113;DHT22;7657;50.140;7.076;2023-04-16T11:12:19;10.70;99.90
15113;DHT22;7657;50.140;7.076;2023-04-16T11:14:48;10.70;99.90
15113;DHT22;7657;50.140;7.076;2023-04-16T11:17:15;10.80;99.90
15113;DHT22;7657;50.140;7.076;2023-04-16T11:19:43;10.80;99.90
15113;DHT22;7657;50.140;7.076;2023-04-16T11:22:15;10.90;99.90
15113;DHT22;7657;50.140;7.076;2023-04-16T11:24:43;10.90;99.90
15113;DHT22;7657;50.140;7.076;2023-04-16T11:27:11;11.00;99.90
15113;DHT22;7657;50.140;7.076;2023-04-16T11:29:39;11.10;99.90
15113;DHT22;7657;50.140;7.076;2023-04-16T11:32:06;11.20;99.90
15113;DHT22;7657;50.140;7.076;2023-04-16T11:34:33;11.10;99.90
15113;DHT22;7657;50.140;7.076;2023-04-16T11:37:01;11.10;99.90
15113;DHT22;7657;50.140;7.076;2023-04-16T11:39:28;11.10;99.90
15113;DHT22;7657;50.140;7.076;2023-04-16T11:41:55;11.10;99.90
15113;DHT22;7657;50.140;7.076;2023-04-16T11:44:23;11.00;99.90
15113;DHT22;7657;50.140;7.076;2023-04-16T11:46:51;11.10;99.90
15113;DHT22;7657;50.140;7.076;2023-04-16T11:49:26;11.20;99.90
15113;DHT22;7657;50.140;7.076;2023-04-16T11:51:53;11.20;99.90
15113;DHT22;7657;50.140;7.076;2023-04-16T11:54:23;11.20;99.90
15113;DHT22;7657;50.140;7.076;2023-04-16T11:56:51;11.30;99.90
15113;DHT22;7657;50.140;7.076;2023-04-16T11:59:20;11.20;99.90
15113;DHT22;7657;50.140;7.076;2023-04-16T12:01:49;11.20;99.90
15113;DHT22;7657;50.140;7.076;2023-04-16T12:04:18;11.20;99.90
15113;DHT22;7657;50.140;7.076;2023-04-16T12:07:07;11.10;99.90
15113;DHT22;7657;50.140;7.076;2023-04-16T12:09:36;11.00;99.90
15113;DHT22;7657;50.140;7.076;2023-04-16T12:12:04;11.00;99.90
15113;DHT22;7657;50.140;7.076;2023-04-16T12:14:31;10.90;99.90
15113;DHT22;7657;50.140;7.076;2023-04-16T12:17:16;11.00;99.90
15113;DHT22;7657;50.140;7.076;2023-04-16T12:19:50;11.00;99.90
15113;DHT22;7657;50.140;7.076;2023-04-16T12:22:26;10.90;99.90
15113;DHT22;7657;50.140;7.076;2023-04-16T12:24:57;10.90;99.90
15113;DHT22;7657;50.140;7.076;2023-04-16T12:27:24;10.80;99.90
15113;DHT22;7657;50.140;7.076;2023-04-16T12:30:03;10.60;99.90
15113;DHT22;7657;50.140;7.076;2023-04-16T12:32:31;10.50;99.90
15113;DHT22;7657;50.140;7.076;2023-04-16T12:34:58;10.50;99.90
15113;DHT22;7657;50.140;7.076;2023-04-16T12:37:25;10.60;99.90
15113;DHT22;7657;50.140;7.076;2023-04-16T12:39:52;10.80;99.90
15113;DHT22;7657;50.140;7.076;2023-04-16T12:42:21;10.80;99.90
15113;DHT22;7657;50.140;7.076;2023-04-16T12:44:47;10.80;99.90
15113;DHT22;7657;50.140;7.076;2023-04-16T12:47:14;10.70;99.90
15113;DHT22;7657;50.140;7.076;2023-04-16T12:49:41;10.70;99.90
15113;DHT22;7657;50.140;7.076;2023-04-16T12:52:09;10.70;99.90
15113;DHT22;7657;50.140;7.076;2023-04-16T12:54:36;10.70;99.90
15113;DHT22;7657;50.140;7.076;2023-04-16T12:57:03;10.60;99.90
15113;DHT22;7657;50.140;7.076;2023-04-16T12:59:31;10.60;99.90
15113;DHT22;7657;50.140;7.076;2023-04-16T13:02:00;10.60;99.90
15113;DHT22;7657;50.140;7.076;2023-04-16T13:04:27;10.60;99.90
15113;DHT22;7657;50.140;7.076;2023-04-16T13:06:53;10.60;99.90
15113;DHT22;7657;50.140;7.076;2023-04-16T13:09:20;10.50;99.90
15113;DHT22;7657;50.140;7.076;2023-04-16T13:11:47;10.60;99.90
15113;DHT22;7657;50.140;7.076;2023-04-16T13:14:14;10.70;99.90
15113;DHT22;7657;50.140;7.076;2023-04-16T13:16:42;10.70;99.90
15113;DHT22;7657;50.140;7.076;2023-04-16T13:19:09;10.80;99.90
15113;DHT22;7657;50.140;7.076;2023-04-16T13:21:36;10.80;99.90
15113;DHT22;7657;50.140;7.076;2023-04-16T13:24:03;10.90;99.90
15113;DHT22;7657;50.140;7.076;2023-04-16T13:26:30;10.80;99.90
15113;DHT22;7657;50.140;7.076;2023-04-16T13:28:57;10.80;99.90
15113;DHT22;7657;50.140;7.076;2023-04-16T13:31:24;10.80;99.90
15113;DHT22;7657;50.140;7.076;2023-04-16T13:33:53;10.80;99.90
15113;DHT22;7657;50.140;7.076;2023-04-16T13:36:20;10.90;99.90
15113;DHT22;7657;50.140;7.076;2023-04-16T13:38:47;11.00;99.90
15113;DHT22;7657;50.140;7.076;2023-04-16T13:41:13;11.00;99.90
15113;DHT22;7657;50.140;7.076;2023-04-16T13:43:40;11.00;99.90
15113;DHT22;7657;50.140;7.076;2023-04-16T13:46:07;11.00;99.90
15113;DHT22;7657;50.140;7.076;2023-04-16T13:48:34;11.00;99.90
15113;DHT22;7657;50.140;7.076;2023-04-16T13:51:03;11.00;99.90
15113;DHT22;7657;50.140;7.076;2023-04-16T13:53:30;10.90;99.90
15113;DHT22;7657;50.140;7.076;2023-04-16T13:55:56;11.00;99.90
15113;DHT22;7657;50.140;7.076;2023-04-16T13:58:23;10.90;99.90
15113;DHT22;7657;50.140;7.076;2023-04-16T14:00:50;10.90;99.90
15113;DHT22;7657;50.140;7.076;2023-04-16T14:03:17;10.90;99.90
15113;DHT22;7657;50.140;7.076;2023-04-16T14:05:44;10.90;99.90
15113;DHT22;7657;50.140;7.076;2023-04-16T14:08:12;11.10;99.90
15113;DHT22;7657;50.140;7.076;2023-04-16T14:10:40;11.10;99.90
15113;DHT22;7657;50.140;7.076;2023-04-16T14:13:07;11.10;99.90
15113;DHT22;7657;50.140;7.076;2023-04-16T14:15:34;11.10;99.90
15113;DHT22;7657;50.140;7.076;2023-04-16T14:18:01;11.10;99.90
15113;DHT22;7657;50.140;7.076;2023-04-16T14:20:28;11.10;99.90
15113;DHT22;7657;50.140;7.076;2023-04-16T14:22:55;11.10;99.90
15113;DHT22;7657;50.140;7.076;2023-04-16T14:25:24;11.00;99.90
15113;DHT22;7657;50.140;7.076;2023-04-16T14:27:51;11.00;99.90
15113;DHT22;7657;50.140;7.076;2023-04-16T14:30:18;11.00;99.90
15113;DHT22;7657;50.140;7.076;2023-04-16T14:32:45;11.00;99.90
15113;DHT22;7657;50.140;7.076;2023-04-16T14:35:12;11.00;99.90
15113;DHT22;7657;50.140;7.076;2023-04-16T14:37:39;11.00;99.90
15113;DHT22;7657;50.140;7.076;2023-04-16T14:40:07;11.00;99.90
15113;DHT22;7657;50.140;7.076;2023-04-16T14:42:36;11.20;99.90
15113;DHT22;7657;50.140;7.076;2023-04-16T14:45:04;11.30;99.90
15113;DHT22;7657;50.140;7.076;2023-04-16T14:47:31;11.30;99.90
15113;DHT22;7657;50.140;7.076;2023-04-16T14:49:58;11.40;99.90
15113;DHT22;7657;50.140;7.076;2023-04-16T14:52:25;11.60;99.90
15113;DHT22;7657;50.140;7.076;2023-04-16T14:54:53;11.70;99.90
15113;DHT22;7657;50.140;7.076;2023-04-16T14:57:20;11.60;99.90
15113;DHT22;7657;50.140;7.076;2023-04-16T14:59:49;11.50;99.90
15113;DHT22;7657;50.140;7.076;2023-04-16T15:02:16;11.60;99.90
15113;DHT22;7657;50.140;7.076;2023-04-16T15:04:43;11.60;99.90
15113;DHT22;7657;50.140;7.076;2023-04-16T15:07:10;11.60;99.90
15113;DHT22;7657;50.140;7.076;2023-04-16T15:09:36;11.50;99.90
15113;DHT22;7657;50.140;7.076;2023-04-16T15:12:04;11.50;99.90
15113;DHT22;7657;50.140;7.076;2023-04-16T15:14:30;11.50;99.90
15113;DHT22;7657;50.140;7.076;2023-04-16T15:16:59;11.60;99.90
15113;DHT22;7657;50.140;7.076;2023-04-16T15:19:26;11.70;99.90
15113;DHT22;7657;50.140;7.076;2023-04-16T15:21:52;11.80;99.90
15113;DHT22;7657;50.140;7.076;2023-04-16T15:24:20;11.90;99.90
15113;DHT22;7657;50.140;7.076;2023-04-16T15:26:47;11.90;99.90
15113;DHT22;7657;50.140;7.076;2023-04-16T15:29:14;11.90;99.90
15113;DHT22;7657;50.140;7.076;2023-04-16T15:31:41;11.90;99.90
15113;DHT22;7657;50.140;7.076;2023-04-16T15:34:09;11.90;99.90
15113;DHT22;7657;50.140;7.076;2023-04-16T15:36:36;12.00;99.90
15113;DHT22;7657;50.140;7.076;2023-04-16T15:39:03;12.00;99.90
15113;DHT22;7657;50.140;7.076;2023-04-16T15:41:30;12.10;99.90
15113;DHT22;7657;50.140;7.076;2023-04-16T15:44:00;12.10;99.90
15113;DHT22;7657;50.140;7.076;2023-04-16T15:46:27;12.20;99.90
15113;DHT22;7657;50.140;7.076;2023-04-16T15:48:54;12.40;99.90
15113;DHT22;7657;50.140;7.076;2023-04-16T15:51:22;12.50;99.90
15113;DHT22;7657;50.140;7.076;2023-04-16T15:53:49;12.90;99.90
15113;DHT22;7657;50.140;7.076;2023-04-16T15:56:16;13.00;99.90
15113;DHT22;7657;50.140;7.076;2023-04-16T15:58:43;13.00;99.90